Time;durP1;ratioP1;P1;durP2;ratioP2;P2;SDS_P1;SDS_P2;PMS_P1;PMS_P2;Temp;Humidity;BMP_temperature;BMP_pressure;BME280_temperature;BME280_humidity;BME280_pressure;Samples;Min_cycle;Max_cycle;Signal;HPM_P1;HPM_P2
2023/02/09 00:00:00;;;;;;;14.60;14.00;;;17.80;45.50;;;;;;5091543;28;20442;-59
2023/02/09 00:02:27;;;;;;;13.57;13.13;;;17.80;45.50;;;;;;5091379;28;20573;-59
2023/02/09 00:04:54;;;;;;;14.90;14.10;;;17.80;45.60;;;;;;5071464;28;20538;-56
2023/02/09 00:07:20;;;;;;;15.67;14.97;;;17.80;45.50;;;;;;5071618;28;20453;-59
2023/02/09 00:09:47;;;;;;;14.40;13.90;;;17.80;45.50;;;;;;5071430;28;20535;-56
2023/02/09 00:15:00;;;;;;;15.10;14.40;;;17.80;45.60;;;;;;5071564;28;20445;-57
2023/02/09 00:17:27;;;;;;;13.83;13.43;;;17.80;45.60;;;;;;5071270;28;20566;-59
2023/02/09 00:19:54;;;;;;;13.67;13.07;;;17.80;45.60;;;;;;5071276;28;20872;-57
2023/02/09 00:22:21;;;;;;;14.80;14.23;;;17.70;45.50;;;;;;5071344;28;20478;-58
2023/02/09 00:24:48;;;;;;;14.03;13.47;;;17.70;45.50;;;;;;5090786;28;20468;-57
2023/02/09 00:27:16;;;;;;;15.30;14.70;;;17.70;45.50;;;;;;5091438;28;20470;-58
2023/02/09 00:29:42;;;;;;;14.37;13.77;;;17.70;45.50;;;;;;5092349;28;20442;-59
2023/02/09 00:32:11;;;;;;;14.77;14.17;;;17.70;45.50;;;;;;5095281;28;20462;-59
2023/02/09 00:34:38;;;;;;;14.97;14.17;;;17.70;45.50;;;;;;5095124;28;20453;-58
2023/02/09 00:37:05;;;;;;;14.40;14.00;;;17.70;45.50;;;;;;5095151;28;20482;-58
2023/02/09 00:39:32;;;;;;;14.60;14.10;;;17.70;45.60;;;;;;5094874;28;20446;-59
2023/02/09 00:42:09;;;;;;;15.27;14.00;;;17.70;45.60;;;;;;5095101;28;20553;-58
2023/02/09 00:44:38;;;;;;;14.50;13.90;;;17.70;45.60;;;;;;5095013;28;20950;-57
2023/02/09 00:47:06;;;;;;;15.03;14.53;;;17.70;45.50;;;;;;5095124;28;20919;-57
2023/02/09 00:49:35;;;;;;;14.67;14.17;;;17.70;45.50;;;;;;5094992;28;20448;-58
2023/02/09 00:52:01;;;;;;;15.20;14.67;;;17.70;45.50;;;;;;5095111;28;20462;-58
2023/02/09 00:54:28;;;;;;;14.27;13.77;;;17.70;45.50;;;;;;5094989;28;20446;-57
2023/02/09 00:56:55;;;;;;;15.13;14.53;;;17.70;45.50;;;;;;5094914;28;20444;-58
2023/02/09 00:59:22;;;;;;;15.00;14.47;;;17.70;45.40;;;;;;5094716;28;20525;-57
2023/02/09 01:01:49;;;;;;;15.30;14.60;;;17.70;45.40;;;;;;5094264;28;20472;-59
2023/02/09 01:04:15;;;;;;;14.27;13.73;;;17.70;45.40;;;;;;5094778;28;20453;-55
2023/02/09 01:06:43;;;;;;;15.13;14.63;;;17.70;45.40;;;;;;5094643;28;20453;-57
2023/02/09 01:09:10;;;;;;;14.07;13.50;;;17.80;45.50;;;;;;5094533;28;20438;-60
2023/02/09 01:11:37;;;;;;;16.43;15.73;;;17.70;45.40;;;;;;5094202;28;20880;-58
2023/02/09 01:14:04;;;;;;;14.43;13.93;;;17.70;45.50;;;;;;5094892;28;20615;-58
2023/02/09 01:16:31;;;;;;;15.37;14.67;;;17.70;45.50;;;;;;5094478;28;20973;-58
2023/02/09 01:19:00;;;;;;;13.73;13.23;;;17.70;45.50;;;;;;5094187;28;20577;-57
2023/02/09 01:21:27;;;;;;;14.87;14.20;;;17.70;45.50;;;;;;5093909;28;20442;-58
2023/02/09 01:23:55;;;;;;;14.07;13.57;;;17.70;45.40;;;;;;5094335;28;20450;-57
2023/02/09 01:26:22;;;;;;;14.87;14.27;;;17.70;45.40;;;;;;5094232;28;20454;-56
2023/02/09 01:28:50;;;;;;;15.93;15.10;;;17.70;45.40;;;;;;5094027;28;20993;-58
2023/02/09 01:31:21;;;;;;;15.43;14.80;;;17.70;45.40;;;;;;5093855;28;21011;-60
2023/02/09 01:33:48;;;;;;;14.50;14.00;;;17.70;45.50;;;;;;5094194;28;20446;-57
2023/02/09 01:36:15;;;;;;;15.53;14.83;;;17.70;45.50;;;;;;5094144;28;20446;-57
2023/02/09 01:38:41;;;;;;;14.73;14.17;;;17.70;45.40;;;;;;5093953;28;20477;-57
2023/02/09 01:41:10;;;;;;;14.77;14.17;;;17.70;45.40;;;;;;5092298;28;20537;-57
2023/02/09 01:43:54;;;;;;;15.47;14.97;;;17.70;46.00;;;;;;5093608;28;20488;-58
2023/02/09 01:46:22;;;;;;;15.30;14.80;;;17.70;45.40;;;;;;5093661;28;20468;-59
2023/02/09 01:48:53;;;;;;;15.17;14.47;;;17.70;45.40;;;;;;5093611;28;20445;-56
2023/02/09 01:51:20;;;;;;;14.67;14.17;;;17.70;45.40;;;;;;5093430;28;20446;-56
2023/02/09 01:53:47;;;;;;;14.60;14.10;;;17.70;45.40;;;;;;5093747;28;20453;-58
2023/02/09 01:56:21;;;;;;;14.83;14.33;;;17.60;45.40;;;;;;5093882;28;20442;-57
2023/02/09 01:58:49;;;;;;;14.73;14.13;;;17.70;45.40;;;;;;5093435;28;20493;-59
2023/02/09 02:01:16;;;;;;;14.80;14.30;;;17.70;45.40;;;;;;5093262;28;20443;-59
2023/02/09 02:03:44;;;;;;;15.80;15.20;;;17.70;45.30;;;;;;5093940;28;20864;-58
2023/02/09 02:06:15;;;;;;;16.50;15.80;;;17.60;45.30;;;;;;5093395;28;20468;-58
2023/02/09 02:08:46;;;;;;;14.90;14.40;;;17.70;45.30;;;;;;5093421;28;20438;-59
2023/02/09 02:11:14;;;;;;;15.50;14.90;;;17.70;45.40;;;;;;5092899;28;20443;-58
2023/02/09 02:13:42;;;;;;;15.40;14.50;;;17.70;45.40;;;;;;5093155;28;20462;-59
2023/02/09 02:16:23;;;;;;;14.67;14.17;;;17.70;45.30;;;;;;5093189;28;20468;-58
2023/02/09 02:19:03;;;;;;;18.60;15.10;;;17.60;45.20;;;;;;5093045;28;20533;-59
2023/02/09 02:22:15;;;;;;;15.50;14.97;;;17.60;45.30;;;;;;5092706;28;20453;-59
2023/02/09 02:25:21;;;;;;;14.70;14.20;;;17.70;45.30;;;;;;5092569;28;20801;-56
2023/02/09 02:27:56;;;;;;;15.40;14.80;;;17.60;45.30;;;;;;5093106;28;20504;-56
2023/02/09 02:30:50;;;;;;;15.77;15.07;;;17.60;45.20;;;;;;5092807;28;20616;-58
2023/02/09 02:33:36;;;;;;;15.93;15.33;;;17.60;45.30;;;;;;5092854;28;20458;-58
2023/02/09 02:36:09;;;;;;;16.17;15.50;;;17.60;45.30;;;;;;5092791;28;20446;-58
2023/02/09 02:38:43;;;;;;;15.03;14.43;;;17.60;45.30;;;;;;5092771;28;20484;-58
2023/02/09 02:41:14;;;;;;;15.57;15.00;;;17.60;45.30;;;;;;5092555;28;20453;-59
2023/02/09 02:43:52;;;;;;;14.20;13.57;;;17.60;45.30;;;;;;5092715;28;20871;-59
2023/02/09 02:46:26;;;;;;;15.13;14.53;;;17.60;45.20;;;;;;5092685;28;20927;-59
2023/02/09 02:48:57;;;;;;;16.10;15.37;;;17.60;45.30;;;;;;5092519;28;20434;-58
2023/02/09 02:51:29;;;;;;;14.57;14.07;;;17.60;45.20;;;;;;5092244;28;20820;-56
2023/02/09 02:53:58;;;;;;;15.40;14.70;;;17.60;45.30;;;;;;5092218;28;20449;-57
2023/02/09 02:56:29;;;;;;;15.73;15.13;;;17.60;45.30;;;;;;5092379;28;20826;-54
2023/02/09 02:58:58;;;;;;;14.30;13.80;;;17.60;45.30;;;;;;5091969;28;20478;-59
2023/02/09 03:01:32;;;;;;;15.33;14.73;;;17.60;45.30;;;;;;5092416;28;20442;-59
2023/02/09 03:04:03;;;;;;;15.17;14.60;;;17.60;45.30;;;;;;5092513;28;20923;-54
2023/02/09 03:06:31;;;;;;;14.63;14.13;;;17.60;45.30;;;;;;5092434;28;20438;-59
2023/02/09 03:08:58;;;;;;;15.03;14.47;;;17.60;45.30;;;;;;5091860;28;20438;-55
2023/02/09 03:11:30;;;;;;;15.23;14.63;;;17.60;45.30;;;;;;5091997;28;20442;-58
2023/02/09 03:14:11;;;;;;;15.63;15.00;;;17.60;45.30;;;;;;5092299;28;20532;-57
2023/02/09 03:16:45;;;;;;;15.00;14.40;;;17.60;45.30;;;;;;5092092;28;20450;-58
2023/02/09 03:19:24;;;;;;;15.90;15.20;;;17.60;45.30;;;;;;5091530;28;20481;-59
2023/02/09 03:21:55;;;;;;;15.80;15.10;;;17.60;45.30;;;;;;5091811;28;20480;-58
2023/02/09 03:24:34;;;;;;;16.03;15.33;;;17.60;45.30;;;;;;5092012;28;20443;-57
2023/02/09 03:27:09;;;;;;;15.80;15.20;;;17.60;45.30;;;;;;5092093;28;20446;-59
2023/02/09 03:29:37;;;;;;;15.03;14.43;;;17.60;45.80;;;;;;5091547;28;20876;-58
2023/02/09 03:32:05;;;;;;;15.07;14.47;;;17.60;45.20;;;;;;5091876;28;20472;-58
2023/02/09 03:34:33;;;;;;;14.57;14.07;;;17.50;45.20;;;;;;5091942;28;20448;-58
2023/02/09 03:37:00;;;;;;;14.73;14.13;;;17.60;45.20;;;;;;5092021;28;20521;-58
2023/02/09 03:39:27;;;;;;;15.63;14.87;;;17.60;45.20;;;;;;5091229;28;20478;-57
2023/02/09 03:41:54;;;;;;;15.70;15.03;;;17.60;45.20;;;;;;5091954;28;20465;-57
2023/02/09 03:44:26;;;;;;;15.97;15.17;;;17.50;45.70;;;;;;5091823;28;20489;-59
2023/02/09 03:46:54;;;;;;;15.40;14.77;;;17.60;45.20;;;;;;5091805;28;20453;-56
2023/02/09 03:49:21;;;;;;;15.80;15.00;;;17.50;45.10;;;;;;5091533;28;20438;-57
2023/02/09 03:51:50;;;;;;;16.23;15.53;;;17.60;45.20;;;;;;5091660;28;20983;-56
2023/02/09 03:54:17;;;;;;;15.37;14.77;;;17.60;45.20;;;;;;5091821;28;20890;-56
2023/02/09 03:56:44;;;;;;;14.63;14.03;;;17.60;45.20;;;;;;5091401;28;20448;-56
2023/02/09 03:59:10;;;;;;;15.47;14.87;;;17.60;45.20;;;;;;5091570;28;20842;-56
2023/02/09 04:01:37;;;;;;;15.30;14.70;;;17.60;45.20;;;;;;5091757;28;20522;-59
2023/02/09 04:04:04;;;;;;;15.07;14.40;;;17.60;45.20;;;;;;5092308;28;20466;-57
2023/02/09 04:06:34;;;;;;;15.50;14.90;;;17.60;45.20;;;;;;5097310;28;20453;-58
2023/02/09 04:09:03;;;;;;;15.07;14.47;;;17.60;45.20;;;;;;5097485;28;20442;-57
2023/02/09 04:11:30;;;;;;;15.17;14.57;;;17.50;45.20;;;;;;5097420;28;20444;-57
2023/02/09 04:13:56;;;;;;;14.20;13.70;;;17.60;45.20;;;;;;5096140;28;20438;-58
2023/02/09 04:16:23;;;;;;;15.07;14.17;;;17.50;45.50;;;;;;5095212;28;20464;-57
2023/02/09 04:18:50;;;;;;;15.60;14.57;;;17.50;45.10;;;;;;5095275;28;20478;-58
2023/02/09 04:21:17;;;;;;;14.53;13.93;;;17.50;45.10;;;;;;5095551;28;20441;-59
2023/02/09 04:23:44;;;;;;;13.90;13.40;;;17.60;45.20;;;;;;5095487;28;20458;-58
2023/02/09 04:26:12;;;;;;;14.97;14.27;;;17.60;45.20;;;;;;5095198;28;20822;-59
2023/02/09 04:28:39;;;;;;;14.97;14.17;;;17.50;45.10;;;;;;5095417;28;20464;-59
2023/02/09 04:31:06;;;;;;;14.23;13.83;;;17.50;45.10;;;;;;5095010;28;20531;-59
2023/02/09 04:33:33;;;;;;;14.47;13.97;;;17.50;45.10;;;;;;5095200;28;21008;-58
2023/02/09 04:36:00;;;;;;;13.93;13.33;;;17.60;45.20;;;;;;5095017;28;20453;-59
2023/02/09 04:38:27;;;;;;;14.50;13.93;;;17.50;45.10;;;;;;5095170;28;20481;-60
2023/02/09 04:40:55;;;;;;;14.43;13.93;;;17.50;45.10;;;;;;5095007;28;20435;-58
2023/02/09 04:43:23;;;;;;;15.33;14.53;;;17.60;45.20;;;;;;5095161;28;20947;-58
2023/02/09 04:45:50;;;;;;;14.33;13.80;;;17.60;45.20;;;;;;5094876;28;20533;-57
2023/02/09 04:48:19;;;;;;;13.90;13.40;;;17.50;45.00;;;;;;5095076;28;20442;-59
2023/02/09 04:50:46;;;;;;;14.73;14.03;;;17.60;45.20;;;;;;5094628;28;20957;-58
2023/02/09 04:53:12;;;;;;;14.40;13.70;;;17.50;45.10;;;;;;5094737;28;20460;-58
2023/02/09 04:55:41;;;;;;;14.13;13.60;;;17.60;45.30;;;;;;5094728;28;20438;-59
2023/02/09 05:00:55;;;;;;;14.23;13.73;;;17.60;45.30;;;;;;5049894;28;20931;-58
2023/02/09 05:03:21;;;;;;;15.73;15.13;;;17.60;45.30;;;;;;5094668;28;20466;-54
2023/02/09 05:05:48;;;;;;;15.60;15.00;;;17.60;45.30;;;;;;5094473;28;20438;-57
2023/02/09 05:08:15;;;;;;;14.93;14.33;;;17.50;45.20;;;;;;5094207;28;20438;-57
2023/02/09 05:10:42;;;;;;;16.10;15.50;;;17.60;45.30;;;;;;5094320;28;20521;-54
2023/02/09 05:13:09;;;;;;;14.80;14.30;;;17.50;45.20;;;;;;5094416;28;20553;-56
2023/02/09 05:15:36;;;;;;;15.07;14.40;;;17.50;45.20;;;;;;5093901;28;20549;-57
2023/02/09 05:18:05;;;;;;;15.63;14.93;;;17.50;45.20;;;;;;5094422;28;20984;-57
2023/02/09 05:20:31;;;;;;;15.20;14.60;;;17.50;45.20;;;;;;5094050;28;20950;-58
2023/02/09 05:22:58;;;;;;;16.17;15.40;;;17.50;45.20;;;;;;5094513;28;20538;-57
2023/02/09 05:25:25;;;;;;;14.67;14.17;;;17.50;45.20;;;;;;5094342;28;20554;-59
2023/02/09 05:27:52;;;;;;;14.63;14.03;;;17.50;45.20;;;;;;5094269;28;20529;-58
2023/02/09 05:30:19;;;;;;;14.47;13.87;;;17.50;45.20;;;;;;5093933;28;20528;-59
2023/02/09 05:32:46;;;;;;;15.90;15.10;;;17.50;45.00;;;;;;5093755;28;20465;-57
2023/02/09 05:35:14;;;;;;;16.03;15.27;;;17.50;45.00;;;;;;5093995;28;20529;-55
2023/02/09 05:37:41;;;;;;;14.37;13.70;;;17.50;45.00;;;;;;5093900;28;20534;-57
2023/02/09 05:40:09;;;;;;;15.67;14.77;;;17.50;45.00;;;;;;5093662;28;20561;-57
2023/02/09 05:42:36;;;;;;;17.43;16.27;;;17.50;45.20;;;;;;5093574;28;20468;-57
2023/02/09 05:45:03;;;;;;;17.23;16.03;;;17.50;45.40;;;;;;5093061;28;20449;-52
2023/02/09 05:47:29;;;;;;;16.90;15.70;;;17.60;45.90;;;;;;5091145;28;20920;-53
2023/02/09 05:49:56;;;;;;;16.27;15.03;;;17.60;46.70;;;;;;5093642;28;20529;-55
2023/02/09 05:52:24;;;;;;;17.10;16.00;;;17.60;47.40;;;;;;5093683;28;20472;-52
2023/02/09 05:54:51;;;;;;;17.23;16.33;;;17.60;47.60;;;;;;5093581;28;20545;-54
2023/02/09 05:57:18;;;;;;;16.17;15.07;;;17.60;47.60;;;;;;5093548;28;20442;-56
2023/02/09 05:59:45;;;;;;;18.50;17.07;;;17.60;47.60;;;;;;5093213;28;20478;-56
2023/02/09 06:02:12;;;;;;;17.13;16.17;;;17.60;47.40;;;;;;5093406;28;20556;-52
2023/02/09 06:04:39;;;;;;;16.77;15.63;;;17.60;47.30;;;;;;5093383;28;20442;-52
2023/02/09 06:07:06;;;;;;;15.67;14.87;;;17.60;47.10;;;;;;5093479;28;20453;-53
2023/02/09 06:09:34;;;;;;;16.10;15.03;;;17.60;47.60;;;;;;5093106;28;20529;-55
2023/02/09 06:12:01;;;;;;;17.07;15.90;;;17.60;46.90;;;;;;5093187;28;20552;-55
2023/02/09 06:14:28;;;;;;;17.53;16.20;;;17.60;46.80;;;;;;5093534;28;20438;-52
2023/02/09 06:16:54;;;;;;;16.30;15.50;;;17.60;46.70;;;;;;5093211;28;20533;-53
2023/02/09 06:19:22;;;;;;;16.80;15.90;;;17.60;46.50;;;;;;5092917;28;20567;-54
2023/02/09 06:21:48;;;;;;;15.70;15.00;;;17.60;46.40;;;;;;5092917;28;20477;-53
2023/02/09 06:24:15;;;;;;;16.03;14.87;;;17.60;46.40;;;;;;5092962;28;20442;-53
2023/02/09 06:26:44;;;;;;;16.07;14.53;;;17.60;46.30;;;;;;5092747;28;20452;-54
2023/02/09 06:29:11;;;;;;;15.30;14.23;;;17.60;46.20;;;;;;5092725;28;20503;-54
2023/02/09 06:31:40;;;;;;;14.97;14.03;;;17.60;46.10;;;;;;5092815;28;21028;-53
2023/02/09 06:34:07;;;;;;;16.77;15.77;;;17.60;46.10;;;;;;5092896;28;20811;-55
2023/02/09 06:36:34;;;;;;;17.53;15.70;;;17.60;46.00;;;;;;5092906;28;20541;-52
2023/02/09 06:39:01;;;;;;;15.97;14.97;;;17.60;46.00;;;;;;5092641;28;20919;-54
2023/02/09 06:41:28;;;;;;;15.87;15.20;;;17.60;45.90;;;;;;5092635;28;20533;-53
2023/02/09 06:43:56;;;;;;;16.10;15.40;;;17.60;45.90;;;;;;5092661;28;20445;-56
2023/02/09 06:46:23;;;;;;;17.03;16.03;;;17.60;45.80;;;;;;5092794;28;20557;-52
2023/02/09 06:48:50;;;;;;;16.57;15.37;;;17.60;45.80;;;;;;5092634;28;20449;-54
2023/02/09 06:51:17;;;;;;;15.60;14.57;;;17.60;45.70;;;;;;5092525;28;20442;-54
2023/02/09 06:53:44;;;;;;;15.70;15.00;;;17.70;45.70;;;;;;5092472;28;20553;-53
2023/02/09 06:56:12;;;;;;;15.20;14.50;;;17.60;45.60;;;;;;5092488;28;20957;-53
2023/02/09 06:58:39;;;;;;;14.67;13.93;;;17.60;45.50;;;;;;5092336;28;20438;-53
2023/02/09 07:01:09;;;;;;;15.50;14.70;;;17.60;45.50;;;;;;5092211;28;20449;-56
2023/02/09 07:03:36;;;;;;;14.70;14.10;;;17.70;45.50;;;;;;5092503;28;20462;-53
2023/02/09 07:06:04;;;;;;;16.43;15.63;;;17.70;45.50;;;;;;5092315;28;20442;-54
2023/02/09 07:08:31;;;;;;;15.90;15.20;;;17.70;45.40;;;;;;5092286;28;20450;-53
2023/02/09 07:11:01;;;;;;;16.17;15.00;;;17.60;45.30;;;;;;5092108;28;20552;-52
2023/02/09 07:13:28;;;;;;;15.70;15.10;;;17.60;45.20;;;;;;5092129;28;20462;-53
2023/02/09 07:15:56;;;;;;;15.93;15.20;;;17.60;45.20;;;;;;5092167;28;20446;-56
2023/02/09 07:18:24;;;;;;;16.67;15.97;;;17.70;45.20;;;;;;5091966;28;20442;-53
2023/02/09 07:20:55;;;;;;;14.73;14.10;;;17.70;45.10;;;;;;5091622;28;20572;-52
2023/02/09 07:23:22;;;;;;;16.63;15.83;;;17.70;45.10;;;;;;5091970;28;20478;-52
2023/02/09 07:25:49;;;;;;;16.00;15.00;;;17.60;45.00;;;;;;5092025;28;20443;-52
2023/02/09 07:28:16;;;;;;;16.83;16.00;;;17.60;44.90;;;;;;5091999;28;20534;-53
2023/02/09 07:30:43;;;;;;;14.47;13.80;;;17.60;44.90;;;;;;5091751;28;20446;-52
2023/02/09 07:33:10;;;;;;;14.37;13.70;;;17.60;44.90;;;;;;5091943;28;20866;-55
2023/02/09 07:35:40;;;;;;;14.47;13.87;;;17.60;44.90;;;;;;5091740;28;20545;-55
2023/02/09 07:38:07;;;;;;;15.03;14.33;;;17.60;44.90;;;;;;5091953;28;20462;-53
2023/02/09 07:40:36;;;;;;;14.50;14.00;;;17.60;44.90;;;;;;5091954;28;20488;-54
2023/02/09 07:43:03;;;;;;;15.23;14.53;;;17.60;44.90;;;;;;5091730;28;20470;-55
2023/02/09 07:45:30;;;;;;;15.27;14.33;;;17.60;44.90;;;;;;5091841;28;20438;-56
2023/02/09 07:47:57;;;;;;;14.20;13.70;;;17.60;44.90;;;;;;5091682;28;20935;-54
2023/02/09 07:50:24;;;;;;;15.20;14.60;;;17.60;44.90;;;;;;5091538;28;20478;-53
2023/02/09 07:52:54;;;;;;;13.97;13.27;;;17.60;44.90;;;;;;5091731;28;20553;-53
2023/02/09 07:55:20;;;;;;;14.40;13.90;;;17.60;44.90;;;;;;5091790;28;20473;-55
2023/02/09 07:57:48;;;;;;;14.47;13.77;;;17.60;44.90;;;;;;5091621;28;20538;-54
2023/02/09 08:00:15;;;;;;;15.10;14.40;;;17.60;44.90;;;;;;5091387;28;20488;-54
2023/02/09 08:02:44;;;;;;;14.37;13.70;;;17.60;44.90;;;;;;5091549;28;20801;-54
2023/02/09 08:05:14;;;;;;;14.17;13.57;;;17.70;45.40;;;;;;5091669;28;20875;-54
2023/02/09 08:07:41;;;;;;;13.90;13.40;;;17.70;44.90;;;;;;5091696;28;20446;-57
2023/02/09 08:10:09;;;;;;;15.23;14.63;;;17.70;44.80;;;;;;5091304;28;20444;-55
2023/02/09 08:15:22;;;;;;;14.97;14.37;;;17.70;44.80;;;;;;5091820;28;20973;-52
2023/02/09 08:17:51;;;;;;;14.50;13.90;;;17.70;44.70;;;;;;5091513;28;20446;-55
2023/02/09 08:20:23;;;;;;;14.80;14.00;;;17.70;44.70;;;;;;5091261;28;21020;-53
2023/02/09 08:22:54;;;;;;;14.40;13.80;;;17.70;44.70;;;;;;5091421;28;20470;-53
2023/02/09 08:25:24;;;;;;;14.67;14.07;;;17.70;44.60;;;;;;5091500;28;20446;-54
2023/02/09 08:27:52;;;;;;;14.30;13.67;;;17.70;44.60;;;;;;5091463;28;20931;-55
2023/02/09 08:30:19;;;;;;;13.97;13.33;;;17.70;44.50;;;;;;5091126;28;20870;-52
2023/02/09 08:32:46;;;;;;;14.40;13.80;;;17.70;44.50;;;;;;5091167;28;20557;-53
2023/02/09 08:35:13;;;;;;;13.30;12.70;;;17.70;44.40;;;;;;5091350;28;20537;-55
2023/02/09 08:37:40;;;;;;;14.00;13.50;;;17.70;44.40;;;;;;5091378;28;20731;-53
2023/02/09 08:40:07;;;;;;;15.23;14.67;;;17.70;44.40;;;;;;5090935;28;20573;-53
2023/02/09 08:42:36;;;;;;;15.83;15.10;;;17.70;44.30;;;;;;5091209;28;20470;-54
2023/02/09 08:45:02;;;;;;;14.87;14.10;;;17.70;44.30;;;;;;5091229;28;20454;-54
2023/02/09 08:47:29;;;;;;;16.07;15.30;;;17.70;44.20;;;;;;5091199;28;20446;-56
2023/02/09 08:49:57;;;;;;;14.80;14.20;;;17.60;44.20;;;;;;5090877;28;20442;-53
2023/02/09 08:52:24;;;;;;;13.80;13.20;;;17.60;44.20;;;;;;5095133;28;20477;-55
2023/02/09 08:54:51;;;;;;;15.23;14.33;;;17.60;44.10;;;;;;5095138;28;20448;-52
2023/02/09 08:57:18;;;;;;;14.10;13.50;;;17.70;44.20;;;;;;5094969;28;20525;-52
2023/02/09 08:59:47;;;;;;;14.20;13.50;;;17.60;44.10;;;;;;5094394;28;20895;-57
2023/02/09 09:02:14;;;;;;;12.73;12.33;;;17.70;44.10;;;;;;5094600;28;20470;-56
2023/02/09 09:04:40;;;;;;;13.93;13.43;;;17.60;44.10;;;;;;5094699;28;20525;-53
2023/02/09 09:07:07;;;;;;;13.80;13.30;;;17.60;44.10;;;;;;5094553;28;20532;-53
2023/02/09 09:09:34;;;;;;;13.50;12.93;;;17.60;44.10;;;;;;5094390;28;20443;-56
2023/02/09 09:12:01;;;;;;;13.33;12.77;;;17.60;44.10;;;;;;5094396;28;20492;-54
2023/02/09 09:14:28;;;;;;;13.33;12.90;;;17.60;44.20;;;;;;5094600;28;20538;-52
2023/02/09 09:16:58;;;;;;;13.53;12.93;;;17.60;44.80;;;;;;5094466;28;20866;-52
2023/02/09 09:19:25;;;;;;;13.03;12.53;;;17.60;44.20;;;;;;5094203;28;20439;-53
2023/02/09 09:21:52;;;;;;;14.03;13.43;;;17.70;44.30;;;;;;5094091;28;20474;-53
2023/02/09 09:24:19;;;;;;;14.23;13.53;;;17.70;44.30;;;;;;5094344;28;20533;-52
2023/02/09 09:26:46;;;;;;;14.23;13.63;;;17.70;44.30;;;;;;5094181;28;20544;-53
2023/02/09 09:29:13;;;;;;;13.30;12.80;;;17.70;44.30;;;;;;5094012;28;20533;-53
2023/02/09 09:31:40;;;;;;;14.20;13.60;;;17.70;44.30;;;;;;5093937;28;20549;-53
2023/02/09 09:34:08;;;;;;;14.27;13.67;;;17.70;44.30;;;;;;5094126;28;20890;-55
2023/02/09 09:36:35;;;;;;;13.90;13.30;;;17.80;44.30;;;;;;5094019;28;20448;-53
2023/02/09 09:39:02;;;;;;;13.20;12.60;;;17.80;44.80;;;;;;5093873;28;20537;-53
2023/02/09 09:41:31;;;;;;;14.10;13.50;;;17.80;44.20;;;;;;5093662;28;20482;-53
2023/02/09 09:44:00;;;;;;;13.10;12.60;;;17.80;44.20;;;;;;5093850;28;20438;-52
2023/02/09 09:46:35;;;;;;;13.53;13.03;;;17.80;44.20;;;;;;5094058;28;20449;-52
2023/02/09 09:49:03;;;;;;;13.60;13.10;;;17.80;44.10;;;;;;5093728;28;20437;-53
2023/02/09 09:51:38;;;;;;;14.03;13.53;;;17.80;44.10;;;;;;5093739;28;20799;-54
2023/02/09 09:54:08;;;;;;;12.60;12.20;;;17.80;44.10;;;;;;5093808;28;20536;-57
2023/02/09 09:56:34;;;;;;;13.80;13.20;;;17.80;44.00;;;;;;5093686;28;20808;-54
2023/02/09 09:59:02;;;;;;;13.23;12.73;;;17.80;44.00;;;;;;5093422;28;20446;-53
2023/02/09 10:01:32;;;;;;;13.80;13.33;;;17.90;44.10;;;;;;5092912;28;20485;-53
2023/02/09 10:04:00;;;;;;;13.60;13.10;;;17.80;44.00;;;;;;5093029;28;20954;-54
2023/02/09 10:06:30;;;;;;;13.70;13.20;;;17.90;44.00;;;;;;5093478;28;20457;-53
2023/02/09 10:09:03;;;;;;;14.23;13.60;;;17.80;43.90;;;;;;5093499;28;20449;-56
2023/02/09 10:11:36;;;;;;;14.20;13.70;;;17.80;43.80;;;;;;5093402;28;20521;-54
2023/02/09 10:14:03;;;;;;;14.17;13.67;;;17.80;43.80;;;;;;5093338;28;20468;-52
2023/02/09 10:16:33;;;;;;;14.90;14.30;;;17.80;43.80;;;;;;5093443;28;20446;-54
2023/02/09 10:19:01;;;;;;;13.97;13.47;;;17.80;43.70;;;;;;5093398;28;20480;-55
2023/02/09 10:21:30;;;;;;;14.40;13.80;;;17.80;43.70;;;;;;5092817;28;20485;-54
2023/02/09 10:24:15;;;;;;;14.10;13.57;;;17.80;43.70;;;;;;5093111;28;20438;-54
2023/02/09 10:26:43;;;;;;;13.40;12.90;;;17.80;43.70;;;;;;5093203;28;20937;-52
2023/02/09 10:29:23;;;;;;;14.33;13.73;;;17.80;43.70;;;;;;5092811;28;20507;-53
2023/02/09 10:31:55;;;;;;;12.60;12.10;;;17.80;43.70;;;;;;5092958;28;20822;-53
2023/02/09 10:34:28;;;;;;;13.60;12.90;;;17.80;43.70;;;;;;5093108;28;20765;-52
2023/02/09 10:37:04;;;;;;;13.27;12.80;;;17.80;43.70;;;;;;5092941;28;20435;-53
2023/02/09 10:39:35;;;;;;;12.80;12.30;;;17.80;43.70;;;;;;5092709;28;20501;-52
2023/02/09 10:42:17;;;;;;;13.33;12.83;;;17.80;43.70;;;;;;5092883;28;20492;-55
2023/02/09 10:44:48;;;;;;;13.57;13.07;;;17.70;43.60;;;;;;5092699;28;20447;-53
2023/02/09 10:47:28;;;;;;;13.20;12.70;;;17.70;43.70;;;;;;5092697;28;20442;-52
2023/02/09 10:49:59;;;;;;;14.30;13.70;;;17.80;43.80;;;;;;5092468;28;20823;-54
2023/02/09 10:52:30;;;;;;;13.60;13.20;;;17.70;43.70;;;;;;5092523;28;20477;-52
2023/02/09 10:55:02;;;;;;;12.93;12.53;;;17.70;43.70;;;;;;5092539;28;20453;-57
2023/02/09 10:57:31;;;;;;;12.70;12.30;;;17.70;43.80;;;;;;5092613;28;20850;-53
2023/02/09 10:59:59;;;;;;;14.00;13.40;;;17.70;43.80;;;;;;5092228;28;20541;-54
2023/02/09 11:02:35;;;;;;;13.77;13.27;;;17.70;43.80;;;;;;5092311;28;20563;-53
2023/02/09 11:05:02;;;;;;;13.43;12.73;;;17.80;43.90;;;;;;5092544;28;20446;-54
2023/02/09 11:07:34;;;;;;;13.60;13.10;;;17.80;43.90;;;;;;5092306;28;20449;-52
2023/02/09 11:10:05;;;;;;;13.77;13.27;;;17.80;43.90;;;;;;5092339;28;20446;-52
2023/02/09 11:12:32;;;;;;;13.57;13.07;;;17.80;43.90;;;;;;5092131;28;20469;-53
2023/02/09 11:15:00;;;;;;;14.43;13.83;;;17.80;43.90;;;;;;5092217;28;20453;-54
2023/02/09 11:17:35;;;;;;;13.53;13.00;;;17.80;43.90;;;;;;5092158;28;20871;-56
2023/02/09 11:20:19;;;;;;;13.47;12.93;;;17.90;43.90;;;;;;5091912;28;20474;-56
2023/02/09 11:23:16;;;;;;;14.03;13.53;;;17.90;43.90;;;;;;5085285;22;20488;-56
2023/02/09 11:25:49;;;;;;;14.27;13.67;;;17.90;43.90;;;;;;5063519;28;20810;-54
2023/02/09 11:28:29;;;;;;;13.60;13.10;;;17.90;43.80;;;;;;5071883;28;20455;-53
2023/02/09 11:31:14;;;;;;;14.23;13.50;;;17.90;43.80;;;;;;5071736;28;20446;-57
2023/02/09 11:33:48;;;;;;;14.37;13.77;;;17.90;43.80;;;;;;5071884;28;21074;-56
2023/02/09 11:36:33;;;;;;;14.50;13.80;;;17.90;43.90;;;;;;5071811;28;20449;-55
2023/02/09 11:39:02;;;;;;;13.40;12.90;;;17.90;43.80;;;;;;5071571;28;20443;-52
2023/02/09 11:44:25;;;;;;;12.90;12.50;;;17.90;43.80;;;;;;5071708;28;20423;-54
2023/02/09 11:46:58;;;;;;;13.77;13.10;;;17.90;43.80;;;;;;5071587;28;20931;-55
2023/02/09 11:49:29;;;;;;;13.33;12.63;;;17.90;43.80;;;;;;5071549;28;20447;-54
2023/02/09 11:51:58;;;;;;;12.70;12.30;;;17.90;43.70;;;;;;5071538;28;20954;-55
2023/02/09 11:54:31;;;;;;;14.50;13.80;;;17.90;44.20;;;;;;5071591;28;20442;-55
2023/02/09 11:57:05;;;;;;;12.60;12.10;;;18.00;43.70;;;;;;5071752;28;20453;-54
2023/02/09 11:59:37;;;;;;;12.60;12.00;;;18.00;43.70;;;;;;5071343;28;20801;-53
2023/02/09 12:02:16;;;;;;;14.77;14.10;;;18.00;43.70;;;;;;5071340;28;20853;-54
2023/02/09 12:04:52;;;;;;;13.67;13.07;;;18.00;43.70;;;;;;5071607;28;20453;-53
2023/02/09 12:07:30;;;;;;;13.40;12.90;;;18.00;43.70;;;;;;5071402;28;20447;-54
2023/02/09 12:10:10;;;;;;;12.90;12.50;;;17.90;43.50;;;;;;5071288;28;20535;-52
2023/02/09 12:12:44;;;;;;;15.37;14.57;;;18.00;43.60;;;;;;5071313;28;20467;-56
2023/02/09 12:15:15;;;;;;;14.17;13.67;;;18.00;43.50;;;;;;5071240;28;20449;-54
2023/02/09 12:17:48;;;;;;;14.43;13.93;;;18.00;43.50;;;;;;5071440;28;20962;-53
2023/02/09 12:20:28;;;;;;;14.20;13.63;;;18.00;43.50;;;;;;5071103;28;20453;-55
2023/02/09 12:23:06;;;;;;;13.60;13.20;;;18.00;43.40;;;;;;5071068;28;20475;-54
2023/02/09 12:26:00;;;;;;;13.40;13.00;;;18.00;43.40;;;;;;5072159;28;20508;-53
2023/02/09 12:28:45;;;;;;;13.87;13.37;;;17.90;43.40;;;;;;5075332;28;20976;-52
2023/02/09 12:31:15;;;;;;;14.20;13.60;;;18.00;43.40;;;;;;5075179;28;20792;-57
2023/02/09 12:34:10;;;;;;;13.70;13.20;;;17.90;43.40;;;;;;5075191;28;20900;-53
2023/02/09 12:36:54;;;;;;;13.30;12.80;;;18.00;43.40;;;;;;5075129;28;20915;-55
2023/02/09 12:39:24;;;;;;;13.93;13.33;;;17.90;43.50;;;;;;5074791;28;20445;-53
2023/02/09 12:42:25;;;;;;;13.10;12.60;;;18.00;43.60;;;;;;5074761;28;20483;-53
2023/02/09 12:44:59;;;;;;;13.50;13.00;;;18.00;43.50;;;;;;5074901;28;20451;-55
2023/02/09 12:47:45;;;;;;;13.17;12.67;;;18.00;43.60;;;;;;5074925;28;20526;-53
2023/02/09 12:50:44;;;;;;;13.10;12.70;;;18.00;43.60;;;;;;5074564;28;20439;-57
2023/02/09 12:53:44;;;;;;;13.10;12.60;;;18.00;43.50;;;;;;5074511;28;20471;-56